createdAt,value
2018-06-01T00:03:46.618Z,21.70
2018-06-01T00:08:41.359Z,21.60
2018-06-01T00:13:35.856Z,21.60
2018-06-01T00:18:30.427Z,21.70
2018-06-01T00:23:25.185Z,21.70
2018-06-01T00:28:19.696Z,21.70
2018-06-01T00:33:14.035Z,21.70
2018-06-01T00:38:08.419Z,21.60
2018-06-01T00:43:03.410Z,21.60
2018-06-01T00:47:57.880Z,21.60
2018-06-01T00:52:53.409Z,21.70
2018-06-01T00:57:49.234Z,21.60
2018-06-01T01:02:44.982Z,21.60
2018-06-01T01:07:40.234Z,21.60
2018-06-01T01:12:36.231Z,21.60
2018-06-01T01:17:31.495Z,21.60
2018-06-01T01:22:26.094Z,21.60
2018-06-01T01:27:20.490Z,21.60
2018-06-01T01:32:14.881Z,21.60
2018-06-01T01:37:09.881Z,21.60
2018-06-01T01:42:05.110Z,21.50
2018-06-01T01:47:00.561Z,21.50
2018-06-01T01:51:55.102Z,21.40
2018-06-01T01:56:49.513Z,21.40
2018-06-01T02:01:43.903Z,21.40
2018-06-01T02:06:38.316Z,21.30
2018-06-01T02:11:33.710Z,21.30
2018-06-01T02:16:29.875Z,21.20
2018-06-01T02:21:25.495Z,21.20
2018-06-01T02:26:23.025Z,21.20
2018-06-01T02:31:18.890Z,21.20
2018-06-01T02:36:14.317Z,21.20
2018-06-01T02:41:08.925Z,21.20
2018-06-01T02:46:03.281Z,21.20
2018-06-01T02:50:57.694Z,21.20
2018-06-01T02:55:52.497Z,21.10
2018-06-01T03:00:46.882Z,21.10
2018-06-01T03:05:41.270Z,21.10
2018-06-01T03:10:35.723Z,21.10
2018-06-01T03:15:30.216Z,21.00
2018-06-01T03:20:24.716Z,21.00
2018-06-01T03:25:19.100Z,21.00
2018-06-01T03:30:13.529Z,21.00
2018-06-01T03:35:07.901Z,21.00
2018-06-01T03:40:02.392Z,21.00
2018-06-01T03:44:56.811Z,21.00
2018-06-01T03:49:51.396Z,20.20
2018-06-01T03:54:45.931Z,19.70
2018-06-01T03:59:40.382Z,19.50
2018-06-01T04:04:35.599Z,19.60
2018-06-01T04:09:30.139Z,19.50
2018-06-01T04:14:24.543Z,19.70
2018-06-01T04:19:18.948Z,19.70
2018-06-01T04:24:13.113Z,19.80
2018-06-01T04:29:08.257Z,19.80
2018-06-01T04:34:02.615Z,19.70
2018-06-01T04:38:57.155Z,19.70
2018-06-01T04:43:52.312Z,19.70
2018-06-01T04:48:46.694Z,19.70
2018-06-01T04:53:41.067Z,19.70
2018-06-01T04:58:35.434Z,19.80
2018-06-01T05:03:29.819Z,19.80
2018-06-01T05:08:25.225Z,19.80
2018-06-01T05:13:19.623Z,19.90
2018-06-01T05:18:14.740Z,20.00
2018-06-01T05:23:09.875Z,20.00
2018-06-01T05:28:04.316Z,20.00
2018-06-01T05:32:58.667Z,20.00
2018-06-01T05:37:53.807Z,20.20
2018-06-01T05:42:48.167Z,20.20
2018-06-01T05:47:42.648Z,20.40
2018-06-01T05:52:37.037Z,20.50
2018-06-01T05:57:31.599Z,20.70
2018-06-01T06:02:26.727Z,21.00
2018-06-01T06:07:21.853Z,21.20
2018-06-01T06:12:16.179Z,21.20
2018-06-01T06:17:10.559Z,21.30
2018-06-01T06:22:05.163Z,21.40
2018-06-01T06:26:59.551Z,21.40
2018-06-01T06:31:54.657Z,21.70
2018-06-01T06:36:49.043Z,21.60
2018-06-01T06:41:43.659Z,21.80
2018-06-01T06:46:38.033Z,22.00
2018-06-01T06:51:32.400Z,22.20
2018-06-01T06:56:27.881Z,22.70
2018-06-01T07:01:22.263Z,22.70
2018-06-01T07:06:16.779Z,22.80
2018-06-01T07:11:11.149Z,22.90
2018-06-01T07:16:05.512Z,23.10
2018-06-01T07:21:00.163Z,23.50
2018-06-01T07:25:54.393Z,24.40
2018-06-01T07:30:48.854Z,26.10
2018-06-01T07:35:43.403Z,27.60
2018-06-01T07:40:37.920Z,28.40
2018-06-01T07:45:32.596Z,28.40
2018-06-01T07:50:27.315Z,27.80
2018-06-01T07:55:21.934Z,27.20
2018-06-01T08:00:16.946Z,26.90
2018-06-01T08:05:11.382Z,27.00
2018-06-01T08:10:06.707Z,26.60
2018-06-01T08:15:01.165Z,26.60
2018-06-01T08:19:55.545Z,26.30
2018-06-01T08:24:50.819Z,26.00
2018-06-01T08:29:45.415Z,25.90
2018-06-01T08:34:39.914Z,25.70
2018-06-01T08:39:34.357Z,25.30
2018-06-01T08:44:28.959Z,25.00
2018-06-01T08:49:24.390Z,24.70
2018-06-01T08:54:18.910Z,24.40
2018-06-01T08:59:13.817Z,24.20
2018-06-01T09:04:09.003Z,23.90
2018-06-01T09:09:03.454Z,23.70
2018-06-01T09:13:58.038Z,23.40
2018-06-01T09:18:52.449Z,23.10
2018-06-01T09:23:46.818Z,22.90
2018-06-01T09:28:41.411Z,22.80
2018-06-01T09:33:35.762Z,22.50
2018-06-01T09:38:30.281Z,22.40
2018-06-01T09:43:25.502Z,21.80
2018-06-01T09:48:21.235Z,21.80
2018-06-01T09:53:15.612Z,21.70
2018-06-01T09:58:10.229Z,21.70
2018-06-01T10:03:04.681Z,21.90
2018-06-01T10:08:00.087Z,22.10
2018-06-01T10:12:55.217Z,22.20
2018-06-01T10:17:51.173Z,22.30
2018-06-01T10:22:45.523Z,22.30
2018-06-01T10:27:39.888Z,22.30
2018-06-01T10:32:34.378Z,22.30
2018-06-01T10:37:29.241Z,22.30
2018-06-01T10:42:23.593Z,22.10
2018-06-01T10:47:19.007Z,21.80
2018-06-01T10:52:14.215Z,21.60
2018-06-01T10:57:08.603Z,21.60
2018-06-01T11:02:03.155Z,21.40
2018-06-01T11:06:58.369Z,21.10
2018-06-01T11:11:53.466Z,21.10
2018-06-01T11:16:47.861Z,21.10
2018-06-01T11:21:43.744Z,21.00
2018-06-01T11:26:38.282Z,21.00
2018-06-01T11:31:32.878Z,21.10
2018-06-01T11:36:27.240Z,21.00
2018-06-01T11:41:22.448Z,21.00
2018-06-01T11:46:17.362Z,21.10
2018-06-01T11:51:11.833Z,21.00
2018-06-01T11:56:06.913Z,20.90
2018-06-01T12:01:02.274Z,20.90
2018-06-01T12:05:56.910Z,20.90
2018-06-01T12:10:51.333Z,20.90
2018-06-01T12:15:45.839Z,21.10
2018-06-01T12:20:40.991Z,21.30
2018-06-01T12:25:35.411Z,21.30
2018-06-01T12:30:30.261Z,21.30
2018-06-01T12:35:24.615Z,21.40
2018-06-01T12:40:19.376Z,21.40
2018-06-01T12:45:13.737Z,21.30
2018-06-01T12:50:09.315Z,21.10
2018-06-01T12:55:03.681Z,21.00
2018-06-01T12:59:58.065Z,20.90
2018-06-01T13:04:52.659Z,20.90
2018-06-01T13:09:47.099Z,20.90
2018-06-01T13:14:41.467Z,20.90
2018-06-01T13:19:35.822Z,21.00
2018-06-01T13:24:30.326Z,21.10
2018-06-01T13:29:24.777Z,20.90
2018-06-01T13:34:20.027Z,20.70
2018-06-01T13:39:14.421Z,20.70
2018-06-01T13:44:08.788Z,20.70
2018-06-01T13:49:04.000Z,20.70
2018-06-01T13:53:58.693Z,20.70
2018-06-01T13:58:53.187Z,20.80
2018-06-01T14:03:47.613Z,20.90
2018-06-01T14:08:42.114Z,20.90
2018-06-01T14:13:36.517Z,20.90
2018-06-01T14:18:30.875Z,20.80
2018-06-01T14:23:25.237Z,20.80
2018-06-01T14:28:20.458Z,20.60
2018-06-01T14:33:14.818Z,20.50
2018-06-01T14:38:09.953Z,20.50
2018-06-01T14:43:05.260Z,20.40
2018-06-01T14:48:00.400Z,20.30
2018-06-01T14:52:56.556Z,20.20
2018-06-01T14:57:51.185Z,20.20
2018-06-01T15:02:46.429Z,20.20
2018-06-01T15:07:40.833Z,20.10
2018-06-01T15:12:35.303Z,20.10
2018-06-01T15:17:30.172Z,20.10
2018-06-01T15:22:24.594Z,20.10
2018-06-01T15:27:19.760Z,20.20
2018-06-01T15:32:14.141Z,20.20
2018-06-01T15:37:08.637Z,20.10
2018-06-01T15:42:03.374Z,20.00
2018-06-01T15:46:58.105Z,20.00
2018-06-01T15:51:52.742Z,20.00
2018-06-01T15:56:48.322Z,19.90
2018-06-01T16:01:43.026Z,19.90
2018-06-01T16:06:37.759Z,19.80
2018-06-01T16:11:33.378Z,19.80
2018-06-01T16:16:28.065Z,19.60
2018-06-01T16:21:22.615Z,19.60
2018-06-01T16:26:17.000Z,19.40
2018-06-01T16:31:12.289Z,19.10
2018-06-01T16:36:05.921Z,19.10
2018-06-01T16:41:01.051Z,18.90
2018-06-01T16:45:55.418Z,18.80
2018-06-01T16:50:49.868Z,18.70
2018-06-01T16:55:44.236Z,18.60
2018-06-01T17:00:39.400Z,18.40
2018-06-01T17:05:33.786Z,18.40
2018-06-01T17:10:28.185Z,18.40
2018-06-01T17:15:22.335Z,18.30
2018-06-01T17:20:16.715Z,18.20
2018-06-01T17:25:11.087Z,18.30
2018-06-01T17:30:06.243Z,18.40
2018-06-01T17:35:00.869Z,18.30
2018-06-01T17:39:55.283Z,18.30
2018-06-01T17:44:49.644Z,18.30
2018-06-01T17:49:44.016Z,18.40
2018-06-01T17:54:39.395Z,18.40
2018-06-01T17:59:33.791Z,18.40
2018-06-01T18:04:28.188Z,18.40
2018-06-01T18:09:22.622Z,18.50
2018-06-01T18:14:17.061Z,18.50
2018-06-01T18:19:12.222Z,18.50
2018-06-01T18:24:06.108Z,18.50
2018-06-01T18:29:01.426Z,18.60
2018-06-01T18:33:55.803Z,18.50
2018-06-01T18:38:51.078Z,18.60
2018-06-01T18:43:45.481Z,18.60
2018-06-01T18:48:39.874Z,18.60
2018-06-01T18:53:34.342Z,18.60
2018-06-01T18:58:28.704Z,18.60
2018-06-01T19:03:23.085Z,18.60
2018-06-01T19:08:17.793Z,18.60
2018-06-01T19:13:12.167Z,18.60
2018-06-01T19:18:06.062Z,18.60
2018-06-01T19:23:01.424Z,18.60
2018-06-01T19:27:55.801Z,18.60
2018-06-01T19:32:50.155Z,18.60
2018-06-01T19:37:44.521Z,18.60
2018-06-01T19:42:38.962Z,18.60
2018-06-01T19:47:33.529Z,18.60
2018-06-01T19:52:27.958Z,18.50
2018-06-01T19:57:22.355Z,18.50
2018-06-01T20:02:16.831Z,18.40
2018-06-01T20:07:11.236Z,18.40
2018-06-01T20:12:05.611Z,18.40
2018-06-01T20:17:00.013Z,18.40
2018-06-01T20:21:55.159Z,18.30
2018-06-01T20:26:49.595Z,18.30
2018-06-01T20:31:45.929Z,18.30
2018-06-01T20:36:40.473Z,18.30
2018-06-01T20:41:35.695Z,18.20
2018-06-01T20:46:30.808Z,18.20
2018-06-01T20:51:25.205Z,18.20
2018-06-01T20:56:19.753Z,18.20
2018-06-01T21:01:14.271Z,18.20
2018-06-01T21:06:08.648Z,18.20
2018-06-01T21:11:04.113Z,18.20
2018-06-01T21:15:58.723Z,18.20
2018-06-01T21:20:53.123Z,18.20
2018-06-01T21:25:47.726Z,18.30
2018-06-01T21:30:42.096Z,18.30
2018-06-01T21:35:37.243Z,18.30
2018-06-01T21:40:31.758Z,18.30
2018-06-01T21:45:26.104Z,18.30
2018-06-01T21:50:20.569Z,18.40
2018-06-01T21:55:14.984Z,18.40
2018-06-01T22:00:09.146Z,18.40
2018-06-01T22:05:04.294Z,18.40
2018-06-01T22:09:58.661Z,18.30
2018-06-01T22:14:53.798Z,18.30
2018-06-01T22:19:48.146Z,18.30
2018-06-01T22:24:42.370Z,18.40
2018-06-01T22:29:37.494Z,18.40
2018-06-01T22:34:32.620Z,18.30
2018-06-01T22:39:27.789Z,18.20
2018-06-01T22:44:22.179Z,18.20
2018-06-01T22:49:16.764Z,18.20
2018-06-01T22:54:11.338Z,18.20
2018-06-01T22:59:05.842Z,18.20
2018-06-01T23:04:00.982Z,18.10
2018-06-01T23:08:56.121Z,18.10
2018-06-01T23:13:50.499Z,18.10
2018-06-01T23:18:45.698Z,18.10
2018-06-01T23:23:40.093Z,18.10
2018-06-01T23:28:34.478Z,18.10
2018-06-01T23:33:29.120Z,18.10
2018-06-01T23:38:24.065Z,18.10
2018-06-01T23:43:19.684Z,18.10
2018-06-01T23:48:14.884Z,18.10
2018-06-01T23:53:10.079Z,18.00
2018-06-01T23:58:04.436Z,18.00
